sensor_id;sensor_type;location;lat;lon;timestamp;P1;durP1;ratioP1;P2;durP2;ratioP2
73593;SDS011;62064;53.406;23.500;2022-07-15T00:02:26;5.53;;;3.13;;
73593;SDS011;62064;53.406;23.500;2022-07-15T00:04:53;6.50;;;2.78;;
73593;SDS011;62064;53.406;23.500;2022-07-15T00:07:19;6.07;;;3.10;;
73593;SDS011;62064;53.406;23.500;2022-07-15T00:09:46;5.10;;;2.63;;
73593;SDS011;62064;53.406;23.500;2022-07-15T00:12:31;5.28;;;2.55;;
73593;SDS011;62064;53.406;23.500;2022-07-15T00:14:57;4.75;;;2.38;;
73593;SDS011;62064;53.406;23.500;2022-07-15T00:17:25;6.75;;;3.20;;
73593;SDS011;62064;53.406;23.500;2022-07-15T00:19:52;5.68;;;3.10;;
73593;SDS011;62064;53.406;23.500;2022-07-15T00:22:19;6.38;;;2.78;;
73593;SDS011;62064;53.406;23.500;2022-07-15T00:24:46;4.28;;;2.53;;
73593;SDS011;62064;53.406;23.500;2022-07-15T00:27:13;6.03;;;2.70;;
73593;SDS011;62064;53.406;23.500;2022-07-15T00:29:40;5.80;;;2.58;;
73593;SDS011;62064;53.406;23.500;2022-07-15T00:32:06;5.35;;;2.83;;
73593;SDS011;62064;53.406;23.500;2022-07-15T00:34:32;4.07;;;2.55;;
73593;SDS011;62064;53.406;23.500;2022-07-15T00:36:58;4.18;;;2.15;;
73593;SDS011;62064;53.406;23.500;2022-07-15T00:39:24;4.75;;;2.30;;
73593;SDS011;62064;53.406;23.500;2022-07-15T00:41:51;5.57;;;3.15;;
73593;SDS011;62064;53.406;23.500;2022-07-15T00:44:17;5.28;;;2.33;;
73593;SDS011;62064;53.406;23.500;2022-07-15T00:46:44;6.18;;;2.55;;
73593;SDS011;62064;53.406;23.500;2022-07-15T00:49:11;6.10;;;2.80;;
73593;SDS011;62064;53.406;23.500;2022-07-15T00:51:41;6.45;;;2.70;;
73593;SDS011;62064;53.406;23.500;2022-07-15T00:54:11;7.20;;;2.72;;
73593;SDS011;62064;53.406;23.500;2022-07-15T00:56:49;6.65;;;2.30;;
73593;SDS011;62064;53.406;23.500;2022-07-15T00:59:21;5.30;;;2.10;;
73593;SDS011;62064;53.406;23.500;2022-07-15T01:01:49;5.32;;;2.80;;
73593;SDS011;62064;53.406;23.500;2022-07-15T01:04:18;5.53;;;2.95;;
73593;SDS011;62064;53.406;23.500;2022-07-15T01:06:46;6.53;;;2.75;;
73593;SDS011;62064;53.406;23.500;2022-07-15T01:09:12;6.85;;;2.65;;
73593;SDS011;62064;53.406;23.500;2022-07-15T01:11:39;6.60;;;3.20;;
73593;SDS011;62064;53.406;23.500;2022-07-15T01:14:05;5.55;;;2.60;;
73593;SDS011;62064;53.406;23.500;2022-07-15T01:16:33;4.28;;;2.75;;
73593;SDS011;62064;53.406;23.500;2022-07-15T01:19:00;5.10;;;2.67;;
73593;SDS011;62064;53.406;23.500;2022-07-15T01:21:35;6.68;;;3.05;;
73593;SDS011;62064;53.406;23.500;2022-07-15T01:24:02;5.03;;;2.60;;
73593;SDS011;62064;53.406;23.500;2022-07-15T01:26:35;6.75;;;2.72;;
73593;SDS011;62064;53.406;23.500;2022-07-15T01:29:02;5.88;;;2.38;;
73593;SDS011;62064;53.406;23.500;2022-07-15T01:31:28;4.68;;;2.60;;
73593;SDS011;62064;53.406;23.500;2022-07-15T01:33:56;8.32;;;3.47;;
73593;SDS011;62064;53.406;23.500;2022-07-15T01:36:23;5.53;;;2.80;;
73593;SDS011;62064;53.406;23.500;2022-07-15T01:39:02;6.15;;;3.08;;
73593;SDS011;62064;53.406;23.500;2022-07-15T01:41:29;5.55;;;2.97;;
73593;SDS011;62064;53.406;23.500;2022-07-15T01:43:55;6.22;;;2.80;;
73593;SDS011;62064;53.406;23.500;2022-07-15T01:46:23;5.13;;;2.80;;
73593;SDS011;62064;53.406;23.500;2022-07-15T01:48:49;5.13;;;2.90;;
73593;SDS011;62064;53.406;23.500;2022-07-15T01:51:44;5.63;;;2.92;;
73593;SDS011;62064;53.406;23.500;2022-07-15T01:54:11;7.00;;;2.58;;
73593;SDS011;62064;53.406;23.500;2022-07-15T01:56:42;6.15;;;3.00;;
73593;SDS011;62064;53.406;23.500;2022-07-15T01:59:09;6.38;;;3.05;;
73593;SDS011;62064;53.406;23.500;2022-07-15T02:01:35;5.43;;;2.58;;
73593;SDS011;62064;53.406;23.500;2022-07-15T02:04:10;5.18;;;3.25;;
73593;SDS011;62064;53.406;23.500;2022-07-15T02:06:38;5.40;;;2.88;;
73593;SDS011;62064;53.406;23.500;2022-07-15T02:11:38;6.50;;;3.47;;
73593;SDS011;62064;53.406;23.500;2022-07-15T02:14:06;6.63;;;2.60;;
73593;SDS011;62064;53.406;23.500;2022-07-15T02:16:33;7.13;;;2.42;;
73593;SDS011;62064;53.406;23.500;2022-07-15T02:19:03;4.88;;;2.80;;
73593;SDS011;62064;53.406;23.500;2022-07-15T02:21:29;9.40;;;3.00;;
73593;SDS011;62064;53.406;23.500;2022-07-15T02:23:58;5.88;;;2.70;;
73593;SDS011;62064;53.406;23.500;2022-07-15T02:26:25;10.63;;;2.97;;
73593;SDS011;62064;53.406;23.500;2022-07-15T02:28:54;4.55;;;2.45;;
73593;SDS011;62064;53.406;23.500;2022-07-15T02:31:20;4.78;;;2.83;;
73593;SDS011;62064;53.406;23.500;2022-07-15T02:33:48;5.43;;;2.60;;
73593;SDS011;62064;53.406;23.500;2022-07-15T02:36:18;6.30;;;2.50;;
73593;SDS011;62064;53.406;23.500;2022-07-15T02:38:45;3.85;;;2.47;;
73593;SDS011;62064;53.406;23.500;2022-07-15T02:41:13;4.50;;;2.42;;
73593;SDS011;62064;53.406;23.500;2022-07-15T02:43:51;5.15;;;2.20;;
73593;SDS011;62064;53.406;23.500;2022-07-15T02:46:17;4.80;;;2.42;;
73593;SDS011;62064;53.406;23.500;2022-07-15T02:51:12;5.00;;;2.13;;
73593;SDS011;62064;53.406;23.500;2022-07-15T02:53:39;4.28;;;2.22;;
73593;SDS011;62064;53.406;23.500;2022-07-15T02:56:11;5.32;;;2.20;;
73593;SDS011;62064;53.406;23.500;2022-07-15T02:58:39;4.03;;;2.67;;
73593;SDS011;62064;53.406;23.500;2022-07-15T03:01:06;6.93;;;2.67;;
73593;SDS011;62064;53.406;23.500;2022-07-15T03:03:33;6.53;;;3.17;;
73593;SDS011;62064;53.406;23.500;2022-07-15T03:08:26;6.75;;;2.83;;
73593;SDS011;62064;53.406;23.500;2022-07-15T03:10:52;5.80;;;3.03;;
73593;SDS011;62064;53.406;23.500;2022-07-15T03:13:19;5.07;;;2.58;;
73593;SDS011;62064;53.406;23.500;2022-07-15T03:15:45;5.60;;;2.50;;
73593;SDS011;62064;53.406;23.500;2022-07-15T03:20:38;8.23;;;3.60;;
73593;SDS011;62064;53.406;23.500;2022-07-15T03:23:05;8.00;;;4.60;;
73593;SDS011;62064;53.406;23.500;2022-07-15T03:25:32;9.57;;;4.13;;
73593;SDS011;62064;53.406;23.500;2022-07-15T03:30:35;6.97;;;3.85;;
73593;SDS011;62064;53.406;23.500;2022-07-15T03:33:04;11.20;;;5.70;;
73593;SDS011;62064;53.406;23.500;2022-07-15T03:35:30;11.18;;;5.85;;
73593;SDS011;62064;53.406;23.500;2022-07-15T03:37:56;9.25;;;5.93;;
73593;SDS011;62064;53.406;23.500;2022-07-15T03:40:25;7.13;;;5.00;;
73593;SDS011;62064;53.406;23.500;2022-07-15T03:42:52;7.25;;;5.20;;
73593;SDS011;62064;53.406;23.500;2022-07-15T03:45:18;7.20;;;4.88;;
73593;SDS011;62064;53.406;23.500;2022-07-15T03:47:44;6.97;;;4.22;;
73593;SDS011;62064;53.406;23.500;2022-07-15T03:50:13;9.35;;;4.50;;
73593;SDS011;62064;53.406;23.500;2022-07-15T03:52:41;6.88;;;4.40;;
73593;SDS011;62064;53.406;23.500;2022-07-15T03:55:07;10.88;;;3.40;;
73593;SDS011;62064;53.406;23.500;2022-07-15T03:57:35;6.35;;;3.30;;
73593;SDS011;62064;53.406;23.500;2022-07-15T04:00:03;5.78;;;3.35;;
73593;SDS011;62064;53.406;23.500;2022-07-15T04:02:40;5.70;;;3.50;;
73593;SDS011;62064;53.406;23.500;2022-07-15T04:05:07;7.95;;;3.75;;
73593;SDS011;62064;53.406;23.500;2022-07-15T04:07:33;7.10;;;4.07;;
73593;SDS011;62064;53.406;23.500;2022-07-15T04:09:59;7.25;;;3.65;;
73593;SDS011;62064;53.406;23.500;2022-07-15T04:12:25;6.75;;;3.22;;
73593;SDS011;62064;53.406;23.500;2022-07-15T04:14:52;6.72;;;5.05;;
73593;SDS011;62064;53.406;23.500;2022-07-15T04:17:18;6.82;;;5.05;;
73593;SDS011;62064;53.406;23.500;2022-07-15T04:19:45;7.15;;;4.90;;
73593;SDS011;62064;53.406;23.500;2022-07-15T04:22:11;7.28;;;4.00;;
73593;SDS011;62064;53.406;23.500;2022-07-15T04:24:42;6.30;;;3.50;;
73593;SDS011;62064;53.406;23.500;2022-07-15T04:27:12;8.68;;;3.50;;
73593;SDS011;62064;53.406;23.500;2022-07-15T04:29:38;6.47;;;3.17;;
73593;SDS011;62064;53.406;23.500;2022-07-15T04:32:07;6.32;;;3.38;;
73593;SDS011;62064;53.406;23.500;2022-07-15T04:34:39;5.97;;;3.15;;
73593;SDS011;62064;53.406;23.500;2022-07-15T04:37:05;5.35;;;2.65;;
73593;SDS011;62064;53.406;23.500;2022-07-15T04:39:31;6.50;;;3.05;;
73593;SDS011;62064;53.406;23.500;2022-07-15T04:41:58;6.35;;;2.70;;
73593;SDS011;62064;53.406;23.500;2022-07-15T04:44:24;5.18;;;2.85;;
73593;SDS011;62064;53.406;23.500;2022-07-15T04:46:50;9.55;;;2.95;;
73593;SDS011;62064;53.406;23.500;2022-07-15T04:49:39;7.38;;;2.67;;
73593;SDS011;62064;53.406;23.500;2022-07-15T04:52:24;5.35;;;2.47;;
73593;SDS011;62064;53.406;23.500;2022-07-15T04:54:51;6.35;;;2.70;;
73593;SDS011;62064;53.406;23.500;2022-07-15T04:57:18;5.72;;;2.45;;
73593;SDS011;62064;53.406;23.500;2022-07-15T05:02:15;6.13;;;2.72;;
73593;SDS011;62064;53.406;23.500;2022-07-15T05:04:46;4.75;;;2.30;;
73593;SDS011;62064;53.406;23.500;2022-07-15T05:07:14;6.57;;;2.70;;
73593;SDS011;62064;53.406;23.500;2022-07-15T05:09:42;5.95;;;2.60;;
73593;SDS011;62064;53.406;23.500;2022-07-15T05:12:09;4.50;;;2.80;;
73593;SDS011;62064;53.406;23.500;2022-07-15T05:14:45;6.40;;;2.83;;
73593;SDS011;62064;53.406;23.500;2022-07-15T05:17:13;8.20;;;2.60;;
73593;SDS011;62064;53.406;23.500;2022-07-15T05:19:39;3.47;;;2.00;;
73593;SDS011;62064;53.406;23.500;2022-07-15T05:22:05;4.97;;;2.33;;
73593;SDS011;62064;53.406;23.500;2022-07-15T05:24:33;4.30;;;2.03;;
73593;SDS011;62064;53.406;23.500;2022-07-15T05:27:02;5.35;;;2.08;;
73593;SDS011;62064;53.406;23.500;2022-07-15T05:29:32;4.82;;;2.35;;
73593;SDS011;62064;53.406;23.500;2022-07-15T05:31:58;4.18;;;1.98;;
73593;SDS011;62064;53.406;23.500;2022-07-15T05:34:25;3.88;;;2.38;;
73593;SDS011;62064;53.406;23.500;2022-07-15T05:36:52;4.72;;;1.90;;
73593;SDS011;62064;53.406;23.500;2022-07-15T05:39:19;3.78;;;1.88;;
73593;SDS011;62064;53.406;23.500;2022-07-15T05:41:46;6.50;;;1.80;;
73593;SDS011;62064;53.406;23.500;2022-07-15T05:44:12;5.03;;;1.50;;
73593;SDS011;62064;53.406;23.500;2022-07-15T05:46:46;4.68;;;1.67;;
73593;SDS011;62064;53.406;23.500;2022-07-15T05:49:12;3.60;;;1.60;;
73593;SDS011;62064;53.406;23.500;2022-07-15T05:51:38;4.97;;;1.70;;
73593;SDS011;62064;53.406;23.500;2022-07-15T05:54:05;4.97;;;1.38;;
73593;SDS011;62064;53.406;23.500;2022-07-15T05:56:32;3.97;;;1.60;;
73593;SDS011;62064;53.406;23.500;2022-07-15T05:58:58;3.70;;;1.50;;
73593;SDS011;62064;53.406;23.500;2022-07-15T06:01:30;3.05;;;1.40;;
73593;SDS011;62064;53.406;23.500;2022-07-15T06:03:56;3.35;;;1.55;;
73593;SDS011;62064;53.406;23.500;2022-07-15T06:06:24;4.13;;;1.55;;
73593;SDS011;62064;53.406;23.500;2022-07-15T06:08:53;5.45;;;1.30;;
73593;SDS011;62064;53.406;23.500;2022-07-15T06:11:20;4.25;;;1.70;;
73593;SDS011;62064;53.406;23.500;2022-07-15T06:13:50;3.92;;;1.40;;
73593;SDS011;62064;53.406;23.500;2022-07-15T06:16:17;4.20;;;1.50;;
73593;SDS011;62064;53.406;23.500;2022-07-15T06:18:43;2.45;;;1.23;;
73593;SDS011;62064;53.406;23.500;2022-07-15T06:21:09;6.07;;;1.35;;
73593;SDS011;62064;53.406;23.500;2022-07-15T06:23:36;2.90;;;1.35;;
73593;SDS011;62064;53.406;23.500;2022-07-15T06:26:02;4.70;;;1.50;;
73593;SDS011;62064;53.406;23.500;2022-07-15T06:28:30;3.97;;;1.55;;
73593;SDS011;62064;53.406;23.500;2022-07-15T06:31:01;5.72;;;1.38;;
73593;SDS011;62064;53.406;23.500;2022-07-15T06:33:27;4.47;;;1.30;;
73593;SDS011;62064;53.406;23.500;2022-07-15T06:35:53;7.03;;;1.95;;
73593;SDS011;62064;53.406;23.500;2022-07-15T06:38:22;3.65;;;1.33;;
73593;SDS011;62064;53.406;23.500;2022-07-15T06:40:48;10.32;;;1.58;;
73593;SDS011;62064;53.406;23.500;2022-07-15T06:43:15;5.47;;;1.45;;
73593;SDS011;62064;53.406;23.500;2022-07-15T06:45:55;4.00;;;1.30;;
73593;SDS011;62064;53.406;23.500;2022-07-15T06:48:21;6.28;;;1.73;;
73593;SDS011;62064;53.406;23.500;2022-07-15T06:50:47;5.65;;;1.48;;
73593;SDS011;62064;53.406;23.500;2022-07-15T06:53:14;4.57;;;1.30;;
73593;SDS011;62064;53.406;23.500;2022-07-15T06:55:40;1.60;;;1.00;;
73593;SDS011;62064;53.406;23.500;2022-07-15T06:58:07;2.78;;;1.45;;
73593;SDS011;62064;53.406;23.500;2022-07-15T07:00:34;5.88;;;1.35;;
73593;SDS011;62064;53.406;23.500;2022-07-15T07:03:02;3.95;;;1.30;;
73593;SDS011;62064;53.406;23.500;2022-07-15T07:05:28;5.30;;;1.40;;
73593;SDS011;62064;53.406;23.500;2022-07-15T07:10:23;3.55;;;1.20;;
73593;SDS011;62064;53.406;23.500;2022-07-15T07:12:52;2.63;;;1.10;;
73593;SDS011;62064;53.406;23.500;2022-07-15T07:15:30;3.85;;;1.33;;
73593;SDS011;62064;53.406;23.500;2022-07-15T07:17:56;3.45;;;1.27;;
73593;SDS011;62064;53.406;23.500;2022-07-15T07:20:25;5.47;;;1.42;;
73593;SDS011;62064;53.406;23.500;2022-07-15T07:22:51;3.38;;;1.30;;
73593;SDS011;62064;53.406;23.500;2022-07-15T07:25:17;4.63;;;1.33;;
73593;SDS011;62064;53.406;23.500;2022-07-15T07:27:43;5.85;;;1.50;;
73593;SDS011;62064;53.406;23.500;2022-07-15T07:30:11;5.07;;;1.40;;
73593;SDS011;62064;53.406;23.500;2022-07-15T07:32:37;3.88;;;1.58;;
73593;SDS011;62064;53.406;23.500;2022-07-15T07:35:03;5.03;;;1.30;;
73593;SDS011;62064;53.406;23.500;2022-07-15T07:37:33;3.60;;;1.35;;
73593;SDS011;62064;53.406;23.500;2022-07-15T07:40:00;3.88;;;1.50;;
73593;SDS011;62064;53.406;23.500;2022-07-15T07:42:26;4.40;;;1.20;;
73593;SDS011;62064;53.406;23.500;2022-07-15T07:44:52;1.45;;;1.00;;
73593;SDS011;62064;53.406;23.500;2022-07-15T07:47:19;2.80;;;1.23;;
73593;SDS011;62064;53.406;23.500;2022-07-15T07:49:47;4.82;;;1.40;;
73593;SDS011;62064;53.406;23.500;2022-07-15T07:52:35;3.20;;;1.10;;
73593;SDS011;62064;53.406;23.500;2022-07-15T07:55:03;1.33;;;1.10;;
73593;SDS011;62064;53.406;23.500;2022-07-15T07:57:30;3.47;;;1.10;;
73593;SDS011;62064;53.406;23.500;2022-07-15T07:59:56;2.65;;;1.40;;
73593;SDS011;62064;53.406;23.500;2022-07-15T08:02:22;5.78;;;1.40;;
73593;SDS011;62064;53.406;23.500;2022-07-15T08:04:52;6.43;;;1.70;;
73593;SDS011;62064;53.406;23.500;2022-07-15T08:07:19;3.03;;;1.40;;
73593;SDS011;62064;53.406;23.500;2022-07-15T08:09:45;2.83;;;1.10;;
73593;SDS011;62064;53.406;23.500;2022-07-15T08:12:13;2.70;;;1.17;;
73593;SDS011;62064;53.406;23.500;2022-07-15T08:14:39;4.63;;;1.30;;
73593;SDS011;62064;53.406;23.500;2022-07-15T08:17:05;3.40;;;1.10;;
73593;SDS011;62064;53.406;23.500;2022-07-15T08:19:31;1.55;;;0.90;;
73593;SDS011;62064;53.406;23.500;2022-07-15T08:21:57;4.57;;;1.00;;
73593;SDS011;62064;53.406;23.500;2022-07-15T08:24:23;1.83;;;1.08;;
73593;SDS011;62064;53.406;23.500;2022-07-15T08:26:49;2.45;;;1.00;;
73593;SDS011;62064;53.406;23.500;2022-07-15T08:29:16;3.83;;;0.95;;
73593;SDS011;62064;53.406;23.500;2022-07-15T08:31:43;4.65;;;1.50;;
73593;SDS011;62064;53.406;23.500;2022-07-15T08:34:10;3.95;;;1.00;;
73593;SDS011;62064;53.406;23.500;2022-07-15T08:36:39;2.60;;;1.00;;
73593;SDS011;62064;53.406;23.500;2022-07-15T08:41:34;2.45;;;1.08;;
73593;SDS011;62064;53.406;23.500;2022-07-15T08:44:06;2.15;;;1.00;;
73593;SDS011;62064;53.406;23.500;2022-07-15T08:46:35;1.80;;;1.10;;
73593;SDS011;62064;53.406;23.500;2022-07-15T08:49:05;1.52;;;1.00;;
73593;SDS011;62064;53.406;23.500;2022-07-15T08:51:37;2.65;;;1.10;;
73593;SDS011;62064;53.406;23.500;2022-07-15T08:54:09;2.65;;;0.82;;
73593;SDS011;62064;53.406;23.500;2022-07-15T08:56:36;1.75;;;1.10;;
73593;SDS011;62064;53.406;23.500;2022-07-15T08:59:06;4.78;;;1.13;;
73593;SDS011;62064;53.406;23.500;2022-07-15T09:01:33;4.97;;;1.20;;
73593;SDS011;62064;53.406;23.500;2022-07-15T09:04:07;2.90;;;1.10;;
73593;SDS011;62064;53.406;23.500;2022-07-15T09:06:43;3.17;;;1.20;;
73593;SDS011;62064;53.406;23.500;2022-07-15T09:09:32;2.80;;;1.08;;
73593;SDS011;62064;53.406;23.500;2022-07-15T09:12:10;4.32;;;1.27;;
73593;SDS011;62064;53.406;23.500;2022-07-15T09:14:40;3.50;;;1.33;;
73593;SDS011;62064;53.406;23.500;2022-07-15T09:22:28;2.42;;;1.00;;
73593;SDS011;62064;53.406;23.500;2022-07-15T09:27:35;4.30;;;1.15;;
73593;SDS011;62064;53.406;23.500;2022-07-15T09:33:27;1.70;;;1.00;;
73593;SDS011;62064;53.406;23.500;2022-07-15T09:36:43;1.45;;;0.90;;
73593;SDS011;62064;53.406;23.500;2022-07-15T09:38:53;1.17;;;0.80;;
73593;SDS011;62064;53.406;23.500;2022-07-15T09:44:12;1.33;;;0.90;;
73593;SDS011;62064;53.406;23.500;2022-07-15T09:47:01;1.40;;;0.85;;
73593;SDS011;62064;53.406;23.500;2022-07-15T09:51:59;3.13;;;1.35;;
73593;SDS011;62064;53.406;23.500;2022-07-15T09:54:29;2.70;;;1.20;;
73593;SDS011;62064;53.406;23.500;2022-07-15T09:56:59;3.67;;;1.00;;
73593;SDS011;62064;53.406;23.500;2022-07-15T09:59:27;3.00;;;1.05;;
73593;SDS011;62064;53.406;23.500;2022-07-15T10:01:55;2.65;;;1.10;;
73593;SDS011;62064;53.406;23.500;2022-07-15T10:04:23;2.58;;;1.00;;
73593;SDS011;62064;53.406;23.500;2022-07-15T10:06:52;1.58;;;0.82;;
73593;SDS011;62064;53.406;23.500;2022-07-15T10:09:23;2.50;;;1.00;;
73593;SDS011;62064;53.406;23.500;2022-07-15T10:11:56;2.25;;;0.98;;
73593;SDS011;62064;53.406;23.500;2022-07-15T10:20:36;1.85;;;1.10;;
73593;SDS011;62064;53.406;23.500;2022-07-15T10:29:31;2.35;;;0.90;;
73593;SDS011;62064;53.406;23.500;2022-07-15T10:31:58;4.68;;;1.30;;
73593;SDS011;62064;53.406;23.500;2022-07-15T10:34:28;1.63;;;1.05;;
73593;SDS011;62064;53.406;23.500;2022-07-15T10:37:00;1.60;;;0.80;;
73593;SDS011;62064;53.406;23.500;2022-07-15T10:42:19;3.65;;;1.15;;
73593;SDS011;62064;53.406;23.500;2022-07-15T10:47:26;2.78;;;1.10;;
73593;SDS011;62064;53.406;23.500;2022-07-15T10:49:53;3.20;;;0.98;;
73593;SDS011;62064;53.406;23.500;2022-07-15T10:52:26;3.50;;;1.00;;
73593;SDS011;62064;53.406;23.500;2022-07-15T11:13:40;2.10;;;1.17;;
73593;SDS011;62064;53.406;23.500;2022-07-15T11:16:20;2.55;;;1.02;;
73593;SDS011;62064;53.406;23.500;2022-07-15T11:18:48;3.13;;;1.17;;
73593;SDS011;62064;53.406;23.500;2022-07-15T11:21:14;2.90;;;1.13;;
73593;SDS011;62064;53.406;23.500;2022-07-15T11:23:42;5.45;;;1.25;;
73593;SDS011;62064;53.406;23.500;2022-07-15T11:26:10;1.77;;;1.05;;
73593;SDS011;62064;53.406;23.500;2022-07-15T11:28:37;2.00;;;1.00;;
73593;SDS011;62064;53.406;23.500;2022-07-15T11:31:04;3.92;;;1.30;;
73593;SDS011;62064;53.406;23.500;2022-07-15T11:33:30;3.75;;;1.30;;
73593;SDS011;62064;53.406;23.500;2022-07-15T11:35:57;1.95;;;1.13;;
73593;SDS011;62064;53.406;23.500;2022-07-15T11:38:30;2.30;;;1.10;;
73593;SDS011;62064;53.406;23.500;2022-07-15T11:41:05;4.40;;;1.38;;
73593;SDS011;62064;53.406;23.500;2022-07-15T11:43:58;3.35;;;1.27;;
73593;SDS011;62064;53.406;23.500;2022-07-15T11:46:50;2.58;;;1.42;;
73593;SDS011;62064;53.406;23.500;2022-07-15T11:49:51;2.20;;;1.23;;
73593;SDS011;62064;53.406;23.500;2022-07-15T11:52:12;3.17;;;1.42;;
73593;SDS011;62064;53.406;23.500;2022-07-15T11:54:48;2.90;;;1.50;;
73593;SDS011;62064;53.406;23.500;2022-07-15T11:57:15;2.13;;;1.25;;
73593;SDS011;62064;53.406;23.500;2022-07-15T11:59:55;2.05;;;1.20;;
73593;SDS011;62064;53.406;23.500;2022-07-15T12:02:25;5.40;;;1.20;;
73593;SDS011;62064;53.406;23.500;2022-07-15T12:05:00;2.97;;;1.48;;
73593;SDS011;62064;53.406;23.500;2022-07-15T12:07:38;2.53;;;1.33;;
73593;SDS011;62064;53.406;23.500;2022-07-15T12:10:14;3.85;;;1.35;;
73593;SDS011;62064;53.406;23.500;2022-07-15T12:12:42;2.67;;;1.38;;
73593;SDS011;62064;53.406;23.500;2022-07-15T12:15:19;4.15;;;1.50;;
73593;SDS011;62064;53.406;23.500;2022-07-15T12:17:46;2.30;;;1.23;;
73593;SDS011;62064;53.406;23.500;2022-07-15T12:20:14;3.25;;;1.40;;
73593;SDS011;62064;53.406;23.500;2022-07-15T12:23:05;3.10;;;1.40;;
73593;SDS011;62064;53.406;23.500;2022-07-15T12:25:35;2.53;;;1.38;;
73593;SDS011;62064;53.406;23.500;2022-07-15T12:28:02;3.25;;;1.63;;
73593;SDS011;62064;53.406;23.500;2022-07-15T12:30:34;3.35;;;1.23;;
73593;SDS011;62064;53.406;23.500;2022-07-15T12:35:40;2.78;;;1.30;;
73593;SDS011;62064;53.406;23.500;2022-07-15T12:38:08;8.05;;;1.63;;
73593;SDS011;62064;53.406;23.500;2022-07-15T12:40:34;3.25;;;1.20;;
73593;SDS011;62064;53.406;23.500;2022-07-15T12:43:00;4.07;;;1.50;;
73593;SDS011;62064;53.406;23.500;2022-07-15T12:45:27;4.70;;;1.20;;
73593;SDS011;62064;53.406;23.500;2022-07-15T12:48:10;3.15;;;1.40;;
73593;SDS011;62064;53.406;23.500;2022-07-15T12:53:12;1.60;;;1.10;;
73593;SDS011;62064;53.406;23.500;2022-07-15T12:55:41;1.75;;;1.17;;
73593;SDS011;62064;53.406;23.500;2022-07-15T12:58:12;2.58;;;1.17;;
73593;SDS011;62064;53.406;23.500;2022-07-15T13:00:40;2.63;;;1.35;;
73593;SDS011;62064;53.406;23.500;2022-07-15T13:03:19;4.38;;;1.35;;
73593;SDS011;62064;53.406;23.500;2022-07-15T13:05:49;2.75;;;1.00;;
73593;SDS011;62064;53.406;23.500;2022-07-15T13:08:18;1.67;;;1.10;;
73593;SDS011;62064;53.406;23.500;2022-07-15T13:10:47;2.47;;;1.00;;
73593;SDS011;62064;53.406;23.500;2022-07-15T13:13:16;1.55;;;1.05;;
73593;SDS011;62064;53.406;23.500;2022-07-15T13:15:45;1.55;;;1.00;;
73593;SDS011;62064;53.406;23.500;2022-07-15T13:20:40;4.15;;;1.15;;
73593;SDS011;62064;53.406;23.500;2022-07-15T13:25:33;4.40;;;1.30;;
73593;SDS011;62064;53.406;23.500;2022-07-15T13:28:02;5.00;;;1.20;;
73593;SDS011;62064;53.406;23.500;2022-07-15T13:30:29;3.65;;;1.17;;
73593;SDS011;62064;53.406;23.500;2022-07-15T13:32:56;2.25;;;1.30;;
73593;SDS011;62064;53.406;23.500;2022-07-15T13:35:23;3.03;;;1.23;;
73593;SDS011;62064;53.406;23.500;2022-07-15T13:40:15;3.05;;;1.40;;
73593;SDS011;62064;53.406;23.500;2022-07-15T13:42:43;2.88;;;1.50;;
73593;SDS011;62064;53.406;23.500;2022-07-15T13:45:10;2.97;;;1.20;;
73593;SDS011;62064;53.406;23.500;2022-07-15T13:47:37;3.63;;;1.20;;
73593;SDS011;62064;53.406;23.500;2022-07-15T13:50:05;2.63;;;0.98;;
73593;SDS011;62064;53.406;23.500;2022-07-15T13:52:53;5.28;;;1.00;;
73593;SDS011;62064;53.406;23.500;2022-07-15T13:55:21;2.30;;;1.10;;
73593;SDS011;62064;53.406;23.500;2022-07-15T13:57:48;0.90;;;0.80;;
73593;SDS011;62064;53.406;23.500;2022-07-15T14:00:16;2.25;;;1.13;;
73593;SDS011;62064;53.406;23.500;2022-07-15T14:02:48;1.55;;;0.93;;
73593;SDS011;62064;53.406;23.500;2022-07-15T14:05:15;4.07;;;1.08;;
73593;SDS011;62064;53.406;23.500;2022-07-15T14:07:42;3.38;;;1.30;;
73593;SDS011;62064;53.406;23.500;2022-07-15T14:10:09;8.93;;;1.73;;
73593;SDS011;62064;53.406;23.500;2022-07-15T14:12:35;6.45;;;1.40;;
73593;SDS011;62064;53.406;23.500;2022-07-15T14:15:01;4.65;;;1.35;;
73593;SDS011;62064;53.406;23.500;2022-07-15T14:17:28;4.07;;;1.20;;
73593;SDS011;62064;53.406;23.500;2022-07-15T14:19:55;3.70;;;1.05;;
73593;SDS011;62064;53.406;23.500;2022-07-15T14:22:23;4.07;;;0.90;;
73593;SDS011;62064;53.406;23.500;2022-07-15T14:24:52;6.15;;;1.50;;
73593;SDS011;62064;53.406;23.500;2022-07-15T14:27:18;9.00;;;1.48;;
73593;SDS011;62064;53.406;23.500;2022-07-15T14:29:48;3.22;;;1.23;;
73593;SDS011;62064;53.406;23.500;2022-07-15T14:32:16;2.90;;;1.30;;
73593;SDS011;62064;53.406;23.500;2022-07-15T14:34:42;2.25;;;0.95;;
73593;SDS011;62064;53.406;23.500;2022-07-15T14:37:08;2.42;;;1.20;;
73593;SDS011;62064;53.406;23.500;2022-07-15T14:39:34;2.22;;;1.08;;
73593;SDS011;62064;53.406;23.500;2022-07-15T14:42:00;5.13;;;1.20;;
73593;SDS011;62064;53.406;23.500;2022-07-15T14:46:53;2.75;;;1.00;;
73593;SDS011;62064;53.406;23.500;2022-07-15T14:49:21;3.10;;;1.27;;
73593;SDS011;62064;53.406;23.500;2022-07-15T14:51:50;4.35;;;1.10;;
73593;SDS011;62064;53.406;23.500;2022-07-15T14:54:16;3.95;;;1.20;;
73593;SDS011;62064;53.406;23.500;2022-07-15T14:56:46;2.88;;;1.20;;
73593;SDS011;62064;53.406;23.500;2022-07-15T14:59:12;3.80;;;2.15;;
73593;SDS011;62064;53.406;23.500;2022-07-15T15:01:39;4.40;;;1.27;;
73593;SDS011;62064;53.406;23.500;2022-07-15T15:04:07;2.20;;;1.00;;
73593;SDS011;62064;53.406;23.500;2022-07-15T15:06:33;1.67;;;1.20;;
73593;SDS011;62064;53.406;23.500;2022-07-15T15:09:00;4.50;;;1.15;;
73593;SDS011;62064;53.406;23.500;2022-07-15T15:11:36;2.05;;;1.00;;
73593;SDS011;62064;53.406;23.500;2022-07-15T15:14:03;2.95;;;0.88;;
73593;SDS011;62064;53.406;23.500;2022-07-15T15:16:30;3.55;;;1.40;;
73593;SDS011;62064;53.406;23.500;2022-07-15T15:18:56;3.78;;;1.20;;
73593;SDS011;62064;53.406;23.500;2022-07-15T15:21:28;3.90;;;1.40;;
73593;SDS011;62064;53.406;23.500;2022-07-15T15:23:55;6.15;;;1.20;;
73593;SDS011;62064;53.406;23.500;2022-07-15T15:28:57;2.30;;;0.80;;
73593;SDS011;62064;53.406;23.500;2022-07-15T15:31:23;5.45;;;1.65;;
73593;SDS011;62064;53.406;23.500;2022-07-15T15:33:58;3.05;;;1.30;;
73593;SDS011;62064;53.406;23.500;2022-07-15T15:36:26;3.75;;;1.48;;
73593;SDS011;62064;53.406;23.500;2022-07-15T15:38:53;3.22;;;1.42;;
73593;SDS011;62064;53.406;23.500;2022-07-15T15:41:22;2.92;;;1.20;;
73593;SDS011;62064;53.406;23.500;2022-07-15T15:43:48;3.33;;;1.20;;
73593;SDS011;62064;53.406;23.500;2022-07-15T15:46:35;2.50;;;1.27;;
73593;SDS011;62064;53.406;23.500;2022-07-15T15:49:01;3.78;;;1.30;;
73593;SDS011;62064;53.406;23.500;2022-07-15T15:51:28;2.47;;;1.00;;
73593;SDS011;62064;53.406;23.500;2022-07-15T15:53:55;3.20;;;1.10;;
73593;SDS011;62064;53.406;23.500;2022-07-15T15:56:22;2.33;;;1.20;;
73593;SDS011;62064;53.406;23.500;2022-07-15T15:58:51;3.58;;;1.30;;
73593;SDS011;62064;53.406;23.500;2022-07-15T16:01:19;2.63;;;1.30;;
73593;SDS011;62064;53.406;23.500;2022-07-15T16:03:46;2.58;;;1.17;;
73593;SDS011;62064;53.406;23.500;2022-07-15T16:06:12;1.73;;;0.95;;
73593;SDS011;62064;53.406;23.500;2022-07-15T16:08:39;3.38;;;1.30;;
73593;SDS011;62064;53.406;23.500;2022-07-15T16:11:05;2.15;;;0.95;;
73593;SDS011;62064;53.406;23.500;2022-07-15T16:13:31;4.07;;;1.50;;
73593;SDS011;62064;53.406;23.500;2022-07-15T16:15:57;3.08;;;1.52;;